Tiempo atmosférico en la estación meteorológica de Opakua, Araba/Álava (660 m.)



Fecha
DESCASC
Temp. máxima en grados centígrados (hora)
DESCASC
Temp. mínima en grados centígrados (hora)
DESCASC
Temp. media en grados centígrados
DESCASC
Racha de viento máxima en m/sg (hora)
DESCASC
Velocidad máxima media en intervalos de 10 minutos(hora)
DESCASC
Precipitaciones diarias en mm
DESCASC
Precipitaciones de 00:00 a 06:00 en mm
DESCASC
Precipitaciones de 06:00 a 12:00 en mm
DESCASC
Precipitaciones de 12:00 a 18:00 en mm
DESCASC
Precipitaciones de 18:00 a 24:00 en mm
DESCASC

Gráficas

Temp. máximas Temp. mínimas Temp. medias Precipitaciones Rachas de viento máximas Velocidades máximas media en intervalos de 10 minutos

Datos horarios

Fecha y hora oficial Temperatura (ºC) Velocidad del viento (km/h) Dirección del viento Racha (km/h) Dirección de racha Precipitación (mm) Presión (hPa) Tendencia (hPa) Humedad (%)
2020-03-29 23:00:00 4.2 15 Noroeste 25 Noroeste 0 -- -- 96
2020-03-29 22:00:00 4.6 15 Noroeste 27 Noroeste 0 -- -- 98
2020-03-29 21:00:00 5.2 17 Noroeste 25 Noroeste 0 -- -- 97
2020-03-29 20:00:00 5.8 11 Noroeste 30 Noroeste 0 -- -- 94
2020-03-29 19:00:00 6.3 19 Noroeste 30 Noroeste 0 -- -- 91
2020-03-29 18:00:00 7.3 18 Noroeste 26 Noroeste 0 -- -- 89
2020-03-29 17:00:00 8.5 16 Noroeste 28 Noroeste 0 -- -- 81
2020-03-29 16:00:00 10.1 17 Noroeste 26 Noroeste 0 -- -- 72
2020-03-29 15:00:00 9.9 12 Norte 24 Norte 0 -- -- 64
2020-03-29 14:00:00 10.2 15 Norte 24 Norte 0 -- -- 66
2020-03-29 13:00:00 10.6 10 Noroeste 18 Noroeste 0 -- -- 70
2020-03-29 12:00:00 9.2 6 Norte 13 Noroeste 0 -- -- 72
2020-03-29 11:00:00 7.4 6 Oeste 10 Oeste 0 -- -- 80
2020-03-29 10:00:00 5.5 3 Oeste 7 Sudeste 0 -- -- 83
2020-03-29 09:00:00 1.3 5 Sudeste 12 Sudeste 0 -- -- 95
2020-03-29 08:00:00 -0.1 10 Sudeste 12 Sudeste 0 -- -- 93
2020-03-29 07:00:00 -0.2 8 Sudeste 12 Sudeste 0 -- -- 92
2020-03-29 06:00:00 0.3 8 Sudeste 11 Sudeste 0 -- -- 92
2020-03-29 05:00:00 0.5 8 Sudeste 12 Sudeste 0 -- -- 91
2020-03-29 03:00:00 1.5 10 Sudeste 13 Sudeste 0 -- -- 90
2020-03-29 01:00:00 1.9 9 Sudeste 12 Sudeste 0 -- -- 87
2020-03-29 00:00:00 2.7 8 Sudeste 11 Sudeste 0 -- -- 84
2020-03-28 23:00:00 3.7 9 Sudeste 11 Sudeste 0 -- -- 81
2020-03-28 22:00:00 5.2 8 Sudeste 10 Sudeste 0 -- -- 77
2020-03-28 21:00:00 7.5 4 Sur 15 Sudoeste 0 -- -- 69
2020-03-28 20:00:00 9.3 5 Sur 11 Nordeste 0 -- -- 66
2020-03-28 19:00:00 11.8 9 Nordeste 19 Nordeste 0 -- -- 59
2020-03-28 18:00:00 13.8 7 Norte 16 Noroeste 0 -- -- 54
2020-03-28 17:00:00 14.1 8 Nordeste 18 Nordeste 0 -- -- 53
2020-03-28 16:00:00 15 5 Noroeste 12 Oeste 0 -- -- 49
2020-03-28 15:00:00 15 6 Oeste 17 Oeste 0 -- -- 46
2020-03-28 14:00:00 14.7 6 Sur 14 Noroeste 0 -- -- 47
2020-03-28 13:00:00 13.1 7 Noroeste 14 Sudoeste 0 -- -- 55
2020-03-28 12:00:00 12.1 4 Oeste 11 Sudoeste 0 -- -- 60
2020-03-28 11:00:00 10.3 4 Oeste 9 Oeste 0 -- -- 66
2020-03-28 10:00:00 8.1 3 Oeste 6 Noroeste 0 -- -- 76
2020-03-28 09:00:00 5.6 3 Noroeste 7 Sudeste 0 -- -- 84
2020-03-28 08:00:00 1.2 6 Sudeste 10 Sudeste 0 -- -- 92
2020-03-28 07:00:00 -0.1 5 Sudeste 11 Sudeste 0 -- -- 90
2020-03-28 06:00:00 0.6 9 Sudeste 14 Sudeste 0 -- -- 88
2020-03-28 05:00:00 0 7 Sudeste 12 Sudeste 0 -- -- 89
2020-03-28 04:00:00 0.1 9 Sudeste 11 Sudeste 0 -- -- 90
2020-03-28 03:00:00 0.3 10 Sudeste 12 Sudeste 0 -- -- 90
2020-03-28 02:00:00 0.4 8 Sudeste 12 Sudeste 0 -- -- 88
2020-03-28 01:00:00 1.6 7 Sudeste 9 Sudeste 0 -- -- 85
2020-03-28 00:00:00 2.7 5 Sudeste 10 Sudeste 0 -- -- 80
2020-03-27 23:00:00 3.8 6 Sudeste 9 Sudeste 0 -- -- 78
2020-03-27 22:00:00 5 5 Sudeste 12 Sudeste 0 -- -- 75
2020-03-27 21:00:00 5 8 Sudeste 12 Sudeste 0 -- -- 75
2020-03-27 20:00:00 6.6 2 Sur 19 Norte 0 -- -- 70
2020-03-27 19:00:00 8.7 12 Nordeste 26 Nordeste 0 -- -- 64
2020-03-27 18:00:00 10.5 10 Nordeste 22 Nordeste 0 -- -- 54
2020-03-27 17:00:00 12.3 6 Norte 15 Noroeste 0 -- -- 46
2020-03-27 16:00:00 11.7 8 Noroeste 19 Noroeste 0 -- -- 52
2020-03-27 15:00:00 11.4 10 Norte 19 Nordeste 0 -- -- 46
2020-03-27 14:00:00 11 9 Norte 16 Noroeste 0 -- -- 46
2020-03-27 13:00:00 10.3 4 Oeste 16 Norte 0 -- -- 56
2020-03-27 12:00:00 8.8 6 Noroeste 14 Oeste 0 -- -- 65
2020-03-27 11:00:00 7 3 Noroeste 8 Sudoeste 0 -- -- 71
2020-03-27 10:00:00 4.5 3 Norte 9 Norte 0 -- -- 77
2020-03-27 09:00:00 2.3 3 Norte 9 Sudeste 0 -- -- 87
2020-03-27 08:00:00 -0.8 8 Sudeste 10 Sudeste 0 -- -- 94
2020-03-27 07:00:00 -2.2 8 Sudeste 10 Sudeste 0 -- -- 93
2020-03-27 06:00:00 -1.9 6 Sudeste 11 Sudeste 0 -- -- 92
2020-03-27 05:00:00 -1.7 8 Sudeste 13 Sudeste 0 -- -- 91
2020-03-27 04:00:00 -1.3 9 Sudeste 12 Sudeste 0 -- -- 90
2020-03-27 03:00:00 -0.4 4 Sudeste 9 Sudeste 0 -- -- 88
2020-03-27 02:00:00 -0.8 7 Sudeste 13 Sudeste 0 -- -- 87
2020-03-27 01:00:00 -0.6 8 Sudeste 13 Sudeste 0 -- -- 85
2020-03-27 00:00:00 -0.6 8 Sudeste 13 Sudeste 0 -- -- 83
2020-03-26 23:00:00 -0.1 8 Sudeste 12 Sudeste 0 -- -- 82
2020-03-26 22:00:00 1.2 3 Sudeste 15 Oeste 0 -- -- 77
2020-03-26 21:00:00 2.1 10 Noroeste 16 Noroeste 0 -- -- 77
2020-03-26 20:00:00 3.5 7 Noroeste 23 Norte 0 -- -- 71
2020-03-26 19:00:00 5.3 13 Noroeste 27 Oeste 0 -- -- 63
2020-03-26 18:00:00 6.7 20 Noroeste 30 Norte 0 -- -- 57
2020-03-26 17:00:00 7.1 16 Norte 34 Noroeste 0 -- -- 55
2020-03-26 16:00:00 8.5 19 Noroeste 35 Noroeste 0 -- -- 51
2020-03-26 15:00:00 7.3 21 Norte 40 Noroeste 0 -- -- 54
2020-03-26 14:00:00 8.4 19 Norte 36 Noroeste 0 -- -- 55
2020-03-26 13:00:00 8.7 25 Noroeste 41 Norte 0 -- -- 58
2020-03-26 12:00:00 7.8 22 Norte 44 Norte 0 -- -- 59
2020-03-26 11:00:00 6.8 27 Noroeste 45 Noroeste 0 -- -- 60
2020-03-26 10:00:00 5.6 26 Noroeste 37 Noroeste 0 -- -- 76
2020-03-26 09:00:00 5.4 21 Noroeste 33 Noroeste 0 -- -- 81
2020-03-26 08:00:00 5.1 17 Noroeste 30 Noroeste 0 -- -- 90
2020-03-26 07:00:00 4.9 14 Noroeste 26 Noroeste 0 -- -- 93
2020-03-26 06:00:00 5 15 Noroeste 27 Noroeste 0 -- -- 93
2020-03-26 05:00:00 4.7 13 Noroeste 21 Noroeste 0 -- -- 95
2020-03-26 04:00:00 4.4 9 Oeste 15 Oeste 0.2 -- -- 93
2020-03-26 03:00:00 4.3 4 Oeste 15 Oeste 0 -- -- 89
2020-03-26 02:00:00 4.1 8 Oeste 17 Oeste 0 -- -- 88
2020-03-26 01:00:00 4.1 11 Oeste 17 Oeste 0 -- -- 90
2020-03-26 00:00:00 3.4 7 Oeste 11 Oeste 0 -- -- 90
2020-03-25 23:00:00 2.6 4 Sudeste 24 Oeste 0 -- -- 85
2020-03-25 22:00:00 2.6 13 Noroeste 21 Noroeste 0 -- -- 88
2020-03-25 21:00:00 3.6 5 Noroeste 16 Oeste 0 -- -- 77
2020-03-25 20:00:00 6.3 6 Oeste 25 Noroeste 0 -- -- 73
2020-03-25 19:00:00 9 16 Noroeste 32 Noroeste 0 -- -- 64
2020-03-25 18:00:00 11.6 22 Oeste 33 Noroeste 0 -- -- 50
2020-03-25 17:00:00 12.5 17 Noroeste 24 Norte 0 -- -- 57
2020-03-25 16:00:00 13.8 14 Norte 25 Norte 0 -- -- 50
2020-03-25 15:00:00 14.6 13 Oeste 25 Oeste 0 -- -- 43
2020-03-25 14:00:00 14.5 9 Noroeste 18 Oeste 0 -- -- 59
2020-03-25 13:00:00 13.5 8 Oeste 19 Oeste 0 -- -- 69
2020-03-25 12:00:00 12.2 7 Noroeste 14 Oeste 0 -- -- 69
2020-03-25 11:00:00 11 5 Oeste 8 Sudoeste 0 -- -- 83
2020-03-25 10:00:00 8.7 3 Oeste 6 Noroeste 0 -- -- 86
2020-03-25 09:00:00 7.2 4 Oeste 7 Oeste 0 -- -- 92
2020-03-25 08:00:00 4.4 3 Sudoeste 10 Sudeste 0 -- -- 97
2020-03-25 07:00:00 3 8 Sudeste 10 Sudeste 0 -- -- 96
2020-03-25 06:00:00 4 4 Sur 12 Sur 0 -- -- 90
2020-03-25 05:00:00 6 5 Sur 22 Sudeste 0 -- -- 90
2020-03-25 04:00:00 6 13 Sudeste 22 Sudeste 0 -- -- 91
2020-03-25 03:00:00 4.1 10 Sudeste 13 Sudeste 0 -- -- 92
2020-03-25 02:00:00 4.6 10 Sudeste 12 Sudeste 0 -- -- 91
2020-03-25 01:00:00 5.1 9 Sudeste 15 Sudeste 0 -- -- 89
2020-03-25 00:00:00 6.2 10 Sudeste 13 Sudeste 0 -- -- 88
2020-03-24 23:00:00 6.6 8 Sudeste 12 Sudeste 0 -- -- 88
2020-03-24 22:00:00 7.3 10 Sudeste 17 Este 0 -- -- 86
2020-03-24 21:00:00 8 10 Sudeste 14 Sudeste 0 -- -- 82
2020-03-24 20:00:00 11.1 6 Sudeste 19 Este 0 -- -- 72
2020-03-24 19:00:00 12.8 8 Nordeste 24 Nordeste 0 -- -- 68
2020-03-24 18:00:00 13.5 9 Nordeste 22 Nordeste 0 -- -- 68
2020-03-24 17:00:00 14.4 8 Nordeste 16 Nordeste 0 -- -- 64
2020-03-24 16:00:00 14.6 3 Oeste 14 Norte 0 -- -- 63
2020-03-24 15:00:00 14.1 4 Norte 13 Nordeste 0 -- -- 63
2020-03-24 14:00:00 14.1 6 Noroeste 20 Sudeste 0 -- -- 66
2020-03-24 13:00:00 14.7 9 Sudeste 21 Sudeste 0 -- -- 63
2020-03-24 12:00:00 12.2 13 Este 21 Este 0 -- -- 73
2020-03-24 11:00:00 12.1 8 Este 18 Sudeste 0 -- -- 73
2020-03-24 10:00:00 11 5 Sur 15 Este 0 -- -- 78
2020-03-24 09:00:00 9.9 7 Este 16 Sudeste 0 -- -- 85
2020-03-24 08:00:00 8.4 4 Nordeste 13 Este 0 -- -- 89
2020-03-24 07:00:00 9 4 Este 23 Sur 0 -- -- 86
2020-03-24 06:00:00 9.2 10 Sudeste 23 Sudeste 0 -- -- 86
2020-03-24 05:00:00 9.1 10 Sudeste 32 Este 0 -- -- 87
2020-03-24 04:00:00 9 10 Este 25 Este 0 -- -- 86
2020-03-24 03:00:00 9.5 10 Sudeste 25 Este 0 -- -- 86
2020-03-24 02:00:00 9.5 5 Este 18 Este 0 -- -- 88
2020-03-24 01:00:00 8.4 3 Norte 9 Norte 0 -- -- 93
2020-03-24 00:00:00 7.4 2 Norte 10 Este 0 -- -- 93
2020-03-23 23:00:00 7.3 3 Nordeste 12 Este 0 -- -- 93
2020-03-23 22:00:00 8.5 4 Este 20 Sudeste 0 -- -- 90
2020-03-23 21:00:00 9.2 4 Este 22 Sudeste 0 -- -- 90
2020-03-23 20:00:00 9.3 14 Sudeste 35 Sudeste 2.2 -- -- 90
2020-03-23 19:00:00 12.3 3 Este 22 Este 0 -- -- 72
2020-03-23 18:00:00 13.3 8 Este 15 Norte 0 -- -- 64
2020-03-23 17:00:00 13.3 7 Nordeste 26 Sudeste 0 -- -- 65
2020-03-23 16:00:00 13.3 13 Sudeste 25 Este 0 -- -- 67
2020-03-23 15:00:00 13.6 11 Sudeste 23 Sudeste 0 -- -- 68
2020-03-23 14:00:00 12.6 5 Noroeste 22 Sudeste 0 -- -- 74
2020-03-23 13:00:00 12.6 3 Oeste 17 Norte 0 -- -- 73
2020-03-23 12:00:00 11.6 10 Norte 17 Norte 0 -- -- 78
2020-03-23 11:00:00 11.1 3 Sudoeste 9 Sudoeste 0 -- -- 86
2020-03-23 10:00:00 9.1 2 Oeste 6 Noroeste 0 -- -- 93
2020-03-23 09:00:00 8.4 4 Oeste 6 Sudoeste 0 -- -- 95
2020-03-23 08:00:00 7.6 2 Este 7 Sudeste 0 -- -- 95
2020-03-23 07:00:00 7.5 3 Sudeste 5 Sudeste 0 -- -- 94
2020-03-23 06:00:00 7.7 3 Sudeste 6 Sudeste 0 -- -- 94
2020-03-23 05:00:00 8 0 Calma 4 Sudoeste 0 -- -- 94
2020-03-23 04:00:00 8 0 Calma 4 Sudeste 0 -- -- 93
2020-03-23 03:00:00 7.5 4 Sur 8 Sudeste 0 -- -- 91
2020-03-23 02:00:00 7.7 4 Sudeste 7 Sudeste 0 -- -- 93
2020-03-23 01:00:00 8.4 2 Sur 4 Sur 0 -- -- 92
2020-03-23 00:00:00 8.4 0 Calma 8 Sudeste 0 -- -- 92
2020-03-22 23:00:00 7.9 8 Sudeste 10 Sudeste 0 -- -- 90
2020-03-22 22:00:00 7.3 5 Sudeste 9 Sudeste 0 -- -- 90
2020-03-22 21:00:00 9.2 4 Sudeste 9 Nordeste 0 -- -- 88
2020-03-22 20:00:00 10.3 3 Este 17 Nordeste 0 -- -- 83
2020-03-22 19:00:00 11.3 9 Nordeste 19 Nordeste 0 -- -- 79
2020-03-22 18:00:00 12.5 12 Nordeste 25 Nordeste 0 -- -- 71
2020-03-22 17:00:00 13.5 8 Este 21 Nordeste 0 -- -- 72
2020-03-22 16:00:00 15.3 14 Noroeste 22 Norte 0 -- -- 59
2020-03-22 15:00:00 15.9 8 Norte 17 Norte 0 -- -- 53
2020-03-22 14:00:00 15.6 9 Norte 15 Norte 0 -- -- 54
2020-03-22 13:00:00 15 8 Noroeste 18 Norte 0 -- -- 60
2020-03-22 12:00:00 13.5 5 Oeste 9 Oeste 0 -- -- 69
2020-03-22 11:00:00 10.5 4 Sudoeste 8 Oeste 0 -- -- 75
2020-03-22 10:00:00 10.1 4 Oeste 8 Oeste 0 -- -- 75
2020-03-22 09:00:00 7.7 3 Nordeste 8 Sudeste 0 -- -- 83
2020-03-22 08:00:00 4.6 5 Sudeste 9 Sudeste 0 -- -- 90
2020-03-22 07:00:00 5.1 5 Sudeste 10 Sudeste 0 -- -- 85
2020-03-22 06:00:00 7.5 7 Este 23 Este 0 -- -- 77
2020-03-22 05:00:00 7.9 9 Este 28 Sudeste 0 -- -- 75
2020-03-22 04:00:00 8.5 22 Sudeste 39 Este 0 -- -- 70
2020-03-22 03:00:00 8.1 24 Sudeste 36 Sudeste 0 -- -- 70
2020-03-22 02:00:00 6 12 Sudeste 18 Sudeste 0 -- -- 83
2020-03-22 01:00:00 6.3 6 Sudeste 13 Este 0 -- -- 80
2020-03-22 00:00:00 7.7 10 Sudeste 26 Este 0 -- -- 77
2020-03-21 23:00:00 9 20 Sudeste 28 Sudeste 0 -- -- 72
2020-03-21 22:00:00 9 17 Sudeste 29 Sudeste 0 -- -- 68
2020-03-21 21:00:00 10 18 Sudeste 33 Sudeste 0 -- -- 63
2020-03-21 20:00:00 10.5 22 Sudeste 33 Sudeste 0 -- -- 63
2020-03-21 19:00:00 12 18 Sudeste 30 Sudeste 0 -- -- 63
2020-03-21 18:00:00 13.3 15 Sudeste 27 Sudeste 0 -- -- 62
2020-03-21 17:00:00 13.7 15 Sudeste 30 Este 0 -- -- 59
2020-03-21 16:00:00 14.3 16 Este 32 Sudeste 0 -- -- 56
2020-03-21 15:00:00 13.9 23 Sudeste 47 Sudeste 0 -- -- 54
2020-03-21 14:00:00 13.4 16 Sudeste 41 Sudeste 0 -- -- 56
2020-03-21 13:00:00 12.9 19 Sudeste 46 Este 0 -- -- 59
2020-03-21 12:00:00 11.9 19 Sudeste 47 Sudeste 0 -- -- 66
2020-03-21 11:00:00 10.9 16 Sudeste 57 Este 0 -- -- 68
2020-03-21 10:00:00 9.7 18 Este 49 Nordeste 0 -- -- 71
2020-03-21 09:00:00 8.2 16 Nordeste 48 Este 0 -- -- 77
2020-03-21 08:00:00 7.1 6 Nordeste 42 Este 0 -- -- 82
2020-03-21 07:00:00 7.1 22 Este 44 Este 0 -- -- 81
2020-03-21 06:00:00 7.4 10 Norte 45 Sudeste 0 -- -- 81
2020-03-21 05:00:00 8 33 Sudeste 59 Este 0 -- -- 81
2020-03-21 04:00:00 8.4 17 Este 47 Este 0 -- -- 80
2020-03-21 03:00:00 8.8 22 Este 55 Este 0 -- -- 80
2020-03-21 02:00:00 10 36 Sudeste 61 Sudeste 0 -- -- 74
2020-03-21 01:00:00 10 36 Sudeste 62 Sudeste 0 -- -- 74
2020-03-21 00:00:00 10.1 37 Sudeste 63 Este 0 -- -- 74
2020-03-20 23:00:00 10.4 34 Sudeste 57 Sudeste 0 -- -- 72
2020-03-20 22:00:00 10.6 25 Sudeste 51 Sudeste 0 -- -- 75
2020-03-20 21:00:00 10.7 23 Sudeste 50 Sudeste 0 -- -- 73
2020-03-20 20:00:00 11.1 29 Sudeste 53 Sudeste 0 -- -- 70
2020-03-20 19:00:00 11.5 20 Este 57 Sudeste 0 -- -- 71
2020-03-20 18:00:00 12.3 25 Sudeste 51 Sudeste 0 -- -- 67
2020-03-20 17:00:00 13.2 14 Este 56 Sudeste 0 -- -- 63
2020-03-20 16:00:00 13.8 26 Sudeste 60 Sudeste 0 -- -- 57
2020-03-20 15:00:00 13.1 36 Sudeste 72 Sudeste 0 -- -- 55
2020-03-20 14:00:00 12.5 43 Sudeste 76 Sudeste 0 -- -- 60
2020-03-20 13:00:00 11.9 41 Sudeste 78 Sudeste 0 -- -- 64
2020-03-20 12:00:00 10.8 45 Sudeste 71 Sudeste 0 -- -- 66
2020-03-20 11:00:00 10.2 38 Sudeste 76 Sudeste 0 -- -- 65
2020-03-20 10:00:00 9.6 48 Sudeste 75 Sudeste 0 -- -- 66
2020-03-20 09:00:00 8.6 46 Sudeste 67 Sudeste 0 -- -- 69
2020-03-20 08:00:00 7.6 41 Sudeste 68 Sudeste 0 -- -- 70
2020-03-20 07:00:00 7.4 46 Sudeste 67 Sudeste 0 -- -- 71
2020-03-20 06:00:00 8.2 38 Sudeste 61 Sudeste 0 -- -- 65
2020-03-20 05:00:00 8.3 33 Este 61 Este 0 -- -- 68
2020-03-20 04:00:00 8.6 37 Sudeste 55 Sudeste 0 -- -- 70
2020-03-20 03:00:00 9.5 30 Sudeste 48 Sudeste 0 -- -- 69
2020-03-20 02:00:00 9.7 30 Sudeste 60 Sudeste 0 -- -- 67
2020-03-20 01:00:00 10.3 35 Sudeste 78 Sudeste 0 -- -- 60
2020-03-20 00:00:00 10.9 36 Sudeste 65 Sudeste 0 -- -- 75
2020-03-19 23:00:00 11.6 32 Sudeste 65 Sudeste 0 -- -- 71
2020-03-19 22:00:00 11.8 31 Sudeste 64 Sudeste 0 -- -- 70
2020-03-19 21:00:00 12.1 34 Sudeste 65 Sudeste 0 -- -- 75
2020-03-19 20:00:00 12.5 29 Sudeste 54 Sudeste 0 -- -- 70
2020-03-19 19:00:00 13.1 16 Sudeste 41 Sudeste 0 -- -- 62
2020-03-19 18:00:00 14.3 21 Sudeste 51 Sudeste 0 -- -- 55
2020-03-19 17:00:00 15.1 29 Sudeste 51 Sudeste 0 -- -- 58
2020-03-19 16:00:00 15.5 35 Sudeste 58 Sudeste 0 -- -- 61
2020-03-19 15:00:00 16 38 Sudeste 56 Sudeste 0 -- -- 59
2020-03-19 14:00:00 16 36 Sudeste 58 Sudeste 0 -- -- 59
2020-03-19 13:00:00 15.9 30 Sudeste 46 Sudeste 0 -- -- 57
2020-03-19 12:00:00 16.1 11 Sudeste 43 Este 0 -- -- 59
2020-03-19 11:00:00 14.7 12 Nordeste 30 Este 0 -- -- 62
2020-03-19 10:00:00 12.9 6 Norte 30 Sudeste 0 -- -- 72
2020-03-19 09:00:00 11.3 8 Sudeste 31 Sudeste 0 -- -- 77
2020-03-19 08:00:00 10.4 12 Nordeste 27 Norte 0 -- -- 82
2020-03-19 07:00:00 10.2 9 Nordeste 25 Sudeste 0 -- -- 80
2020-03-19 06:00:00 10.6 9 Norte 31 Este 0 -- -- 76
2020-03-19 05:00:00 10.7 18 Nordeste 35 Este 0 -- -- 74
2020-03-19 04:00:00 11 15 Este 33 Este 0 -- -- 83
2020-03-19 03:00:00 10.9 9 Nordeste 23 Norte 0 -- -- 85
2020-03-19 02:00:00 10.7 9 Norte 24 Norte 0 -- -- 86
2020-03-19 01:00:00 11 11 Este 25 Nordeste 0 -- -- 82
2020-03-19 00:00:00 10.9 12 Este 17 Este 0 -- -- 82
2020-03-18 23:00:00 11.6 6 Nordeste 26 Sudeste 0 -- -- 79
2020-03-18 22:00:00 12 12 Sudeste 24 Sudeste 0 -- -- 75
2020-03-18 21:00:00 12.2 8 Este 19 Este 0 -- -- 77
2020-03-18 20:00:00 13.3 7 Este 16 Sudeste 0 -- -- 71
2020-03-18 19:00:00 14 3 Noroeste 19 Sudeste 0 -- -- 72
2020-03-18 18:00:00 15.3 7 Sudeste 20 Sudeste 0 -- -- 72
2020-03-18 17:00:00 16.4 4 Nordeste 19 Este 0 -- -- 64
2020-03-18 16:00:00 16.5 13 Este 25 Sudeste 0 -- -- 60
2020-03-18 15:00:00 18.1 11 Sudeste 20 Sudeste 0 -- -- 59
2020-03-18 14:00:00 17.9 5 Sudeste 18 Este 0 -- -- 57
2020-03-18 13:00:00 15.9 6 Norte 10 Norte 0 -- -- 72
2020-03-18 12:00:00 14.2 4 Norte 10 Noroeste 0 -- -- 80
2020-03-18 11:00:00 11.2 4 Noroeste 8 Oeste 0 -- -- 95
2020-03-18 10:00:00 9.4 5 Oeste 7 Oeste 0 -- -- 98
2020-03-18 09:00:00 7.9 0 Calma 6 Sudeste 0 -- -- 99
2020-03-18 08:00:00 6.6 4 Sudeste 7 Sudeste 0 -- -- 98
2020-03-18 07:00:00 7.1 4 Sur 8 Sudeste 0 -- -- 96
2020-03-18 06:00:00 8 4 Noroeste 11 Norte 0 -- -- 96
2020-03-18 05:00:00 8.1 5 Nordeste 8 Este 0 -- -- 96
2020-03-18 04:00:00 8.6 5 Este 13 Norte 0 -- -- 94
2020-03-18 03:00:00 9.5 12 Nordeste 24 Este 0 -- -- 93
2020-03-18 02:00:00 8.4 6 Nordeste 13 Nordeste 0 -- -- 96
2020-03-18 01:00:00 7.5 3 Sudeste 9 Este 0 -- -- 94
2020-03-18 00:00:00 8.9 4 Nordeste 10 Norte 0 -- -- 92
2020-03-17 23:00:00 9.4 3 Este 19 Sudeste 0 -- -- 91
2020-03-17 22:00:00 9.2 2 Norte 15 Este 0 -- -- 90
2020-03-17 21:00:00 10.5 7 Este 23 Sudeste 0 -- -- 88
2020-03-17 20:00:00 10.6 8 Este 19 Nordeste 0 -- -- 88
2020-03-17 19:00:00 10.7 11 Nordeste 21 Nordeste 0 -- -- 88
2020-03-17 18:00:00 10.8 11 Este 23 Este 0 -- -- 88
2020-03-17 17:00:00 11.1 11 Sudeste 21 Este 0 -- -- 89
2020-03-17 16:00:00 10.7 4 Norte 9 Norte 0 -- -- 92
2020-03-17 15:00:00 10.2 4 Norte 14 Nordeste 0 -- -- 92
2020-03-17 14:00:00 9.8 10 Nordeste 16 Nordeste 0 -- -- 91
2020-03-17 13:00:00 9.5 9 Nordeste 13 Norte 0 -- -- 93
2020-03-17 12:00:00 8.8 8 Norte 14 Norte 0 -- -- 95
2020-03-17 11:00:00 8.6 5 Nordeste 12 Este 0 -- -- 95
2020-03-17 10:00:00 8.5 3 Sur 6 Sur 0 -- -- 96
2020-03-17 09:00:00 7.9 2 Noroeste 8 Norte 0 -- -- 99
2020-03-17 08:00:00 7.3 0 Calma 7 Oeste 0 -- -- 100
2020-03-17 07:00:00 7.3 0 Calma 7 Este 0.2 -- -- 100
2020-03-17 06:00:00 7 4 Norte 9 Norte 0 -- -- 100
2020-03-17 05:00:00 6.8 4 Oeste 8 Oeste 0 -- -- 100
2020-03-17 04:00:00 6.7 3 Sudoeste 5 Sudoeste 0.2 -- -- 100
2020-03-17 03:00:00 6.7 2 Sudoeste 8 Sudoeste 0.4 -- -- 99
2020-03-17 02:00:00 6.6 0 Calma 8 Sur 0.4 -- -- 99
2020-03-17 01:00:00 6.6 6 Sudoeste 9 Sudoeste 0.2 -- -- 98
2020-03-17 00:00:00 6.7 3 Sudoeste 14 Sudoeste 0.6 -- -- 98
2020-03-16 23:00:00 6.7 5 Sur 10 Oeste 0 -- -- 97
2020-03-16 22:00:00 6.8 4 Noroeste 18 Nordeste 0 -- -- 97
2020-03-16 21:00:00 6.8 12 Nordeste 21 Nordeste 0 -- -- 95
2020-03-16 20:00:00 6.7 8 Nordeste 21 Nordeste 0 -- -- 95
2020-03-16 19:00:00 6.7 6 Norte 15 Norte 0.4 -- -- 95
2020-03-16 18:00:00 6.7 8 Nordeste 19 Norte 0.2 -- -- 94
2020-03-16 17:00:00 6.9 8 Nordeste 19 Norte 0.2 -- -- 94
2020-03-16 16:00:00 6.7 7 Nordeste 11 Nordeste 0.6 -- -- 96
2020-03-16 15:00:00 6 3 Nordeste 16 Este 1.2 -- -- 94
2020-03-16 14:00:00 5.9 10 Nordeste 19 Nordeste 2.6 -- -- 92
2020-03-16 13:00:00 5.8 11 Nordeste 19 Nordeste 1.6 -- -- 93
2020-03-16 12:00:00 5.4 4 Norte 13 Noroeste 2.2 -- -- 98
2020-03-16 11:00:00 4.6 6 Oeste 14 Oeste 2.4 -- -- 99
2020-03-16 10:00:00 3.5 3 Sudoeste 12 Sur 1.8 -- -- 98
2020-03-16 09:00:00 3 4 Sudoeste 12 Oeste 1.4 -- -- 98
2020-03-16 08:00:00 2.9 5 Oeste 14 Noroeste 1 -- -- 98
2020-03-16 07:00:00 3.1 10 Noroeste 19 Noroeste 0.8 -- -- 98
2020-03-16 06:00:00 3.2 4 Noroeste 17 Oeste 1.8 -- -- 98
2020-03-16 05:00:00 3.4 9 Oeste 22 Noroeste 1.6 -- -- 97
2020-03-16 04:00:00 4 8 Oeste 15 Noroeste 1.2 -- -- 97
2020-03-16 03:00:00 4.6 11 Noroeste 17 Noroeste 3.8 -- -- 97
2020-03-16 02:00:00 4.8 4 Sur 9 Sudoeste 2 -- -- 97
2020-03-16 01:00:00 4.8 5 Noroeste 9 Oeste 1.4 -- -- 96
2020-03-16 00:00:00 5.1 7 Noroeste 28 Noroeste 3.2 -- -- 96
2020-03-15 23:00:00 6.2 19 Noroeste 27 Noroeste 0.2 -- -- 94
2020-03-15 22:00:00 6.6 5 Noroeste 19 Oeste 0.6 -- -- 94
2020-03-15 21:00:00 6.7 7 Norte 36 Oeste 5.4 -- -- 96
2020-03-15 20:00:00 7.6 8 Sudoeste 34 Oeste 11.8 -- -- 95
2020-03-15 19:00:00 10.4 28 Oeste 44 Oeste 0.4 -- -- 87
2020-03-15 18:00:00 14.3 19 Sudeste 44 Sudeste 0 -- -- 73
2020-03-15 17:00:00 15.2 28 Sudeste 44 Sudeste 0 -- -- 63
2020-03-15 16:00:00 16.7 24 Sudeste 44 Sudeste 0 -- -- 60
2020-03-15 15:00:00 17 28 Sudeste 49 Sudeste 0 -- -- 57
2020-03-15 14:00:00 16.3 32 Sudeste 54 Sudeste 0 -- -- 57
2020-03-15 13:00:00 15.2 35 Sudeste 57 Sudeste 0 -- -- 54
2020-03-15 12:00:00 14.1 38 Sudeste 60 Sudeste 0 -- -- 51
2020-03-15 11:00:00 13.1 36 Sudeste 57 Sudeste 0 -- -- 55
2020-03-15 10:00:00 11.3 41 Sudeste 62 Sudeste 0 -- -- 65
2020-03-15 09:00:00 9.5 39 Sudeste 62 Sudeste 0 -- -- 73
2020-03-15 08:00:00 7.8 22 Sudeste 42 Sudeste 0 -- -- 73
2020-03-15 07:00:00 6.2 6 Sudoeste 22 Sudoeste 0 -- -- 70
2020-03-15 06:00:00 5.9 3 Nordeste 23 Este 0 -- -- 68
2020-03-15 05:00:00 2.4 2 Sudoeste 11 Sudeste 0 -- -- 84
2020-03-15 04:00:00 2.2 3 Sur 12 Sudeste 0 -- -- 80
2020-03-15 03:00:00 2 3 Sudeste 12 Sudeste 0 -- -- 74
2020-03-15 02:00:00 2.1 7 Sudeste 16 Sudeste 0 -- -- 73
2020-03-15 01:00:00 2.7 11 Sudeste 15 Sudeste 0 -- -- 72
2020-03-15 00:00:00 3.3 10 Sudeste 14 Sudeste 0 -- -- 77
2020-03-14 23:00:00 3.9 11 Sudeste 13 Sudeste 0 -- -- 80
2020-03-14 22:00:00 4.4 10 Sudeste 13 Sudeste 0 -- -- 80
2020-03-14 21:00:00 5.7 9 Sudeste 13 Sudeste 0 -- -- 80
2020-03-14 20:00:00 7.2 9 Sudeste 12 Sudeste 0 -- -- 77
2020-03-14 19:00:00 11.6 4 Noroeste 12 Oeste 0 -- -- 64
2020-03-14 18:00:00 13.7 7 Oeste 13 Oeste 0 -- -- 56
2020-03-14 17:00:00 14.2 5 Oeste 17 Oeste 0 -- -- 59
2020-03-14 16:00:00 13.9 6 Oeste 19 Sudoeste 0 -- -- 55
2020-03-14 15:00:00 13.5 4 Oeste 18 Sudeste 0 -- -- 62
2020-03-14 14:00:00 12.7 4 Sur 17 Sudoeste 0 -- -- 63
2020-03-14 13:00:00 11.1 5 Oeste 14 Oeste 0 -- -- 67
2020-03-14 12:00:00 9.9 6 Noroeste 15 Noroeste 0 -- -- 74
2020-03-14 11:00:00 8 3 Sudoeste 9 Sudoeste 0 -- -- 77
2020-03-14 10:00:00 6.4 3 Norte 6 Norte 0 -- -- 86
2020-03-14 09:00:00 3.9 0 Calma 8 Sudeste 0 -- -- 96
2020-03-14 08:00:00 -0.5 6 Sudeste 11 Sudeste 0 -- -- 98
2020-03-14 07:00:00 -0.5 7 Sudeste 9 Sudeste 0 -- -- 97
2020-03-14 06:00:00 -0.3 5 Sudeste 8 Sudeste 0 -- -- 97
2020-03-14 05:00:00 0.7 6 Sudeste 8 Sudeste 0 -- -- 97
2020-03-14 04:00:00 0.6 6 Sudeste 10 Sudeste 0 -- -- 95
2020-03-14 03:00:00 1.9 6 Sudeste 8 Sudeste 0 -- -- 92
2020-03-14 02:00:00 3.5 0 Calma 7 Noroeste 0 -- -- 93
2020-03-14 01:00:00 4 3 Sudeste 8 Noroeste 0 -- -- 93
2020-03-14 00:00:00 4.1 3 Sudoeste 6 Oeste 0 -- -- 91
2020-03-13 23:00:00 4.4 2 Sudeste 9 Sudeste 0 -- -- 93
2020-03-13 22:00:00 2.6 3 Sur 11 Sudeste 0 -- -- 92
2020-03-13 21:00:00 3.7 6 Sudeste 12 Este 0 -- -- 88
2020-03-13 20:00:00 6.2 7 Este 19 Nordeste 0 -- -- 84
2020-03-13 19:00:00 7.7 8 Nordeste 15 Norte 0 -- -- 79
2020-03-13 18:00:00 8.9 7 Nordeste 15 Norte 0 -- -- 74
2020-03-13 17:00:00 9.1 10 Nordeste 18 Norte 0 -- -- 74
2020-03-13 16:00:00 9.2 10 Nordeste 19 Nordeste 0 -- -- 75
2020-03-13 15:00:00 9.3 13 Nordeste 27 Nordeste 0 -- -- 77
2020-03-13 14:00:00 9.4 11 Nordeste 26 Nordeste 0 -- -- 77
2020-03-13 13:00:00 8.5 10 Nordeste 23 Nordeste 0 -- -- 82
2020-03-13 12:00:00 8.3 13 Nordeste 21 Nordeste 0 -- -- 84
2020-03-13 11:00:00 8.1 9 Nordeste 19 Nordeste 0 -- -- 83
2020-03-13 10:00:00 7.2 10 Nordeste 20 Nordeste 0 -- -- 90
2020-03-13 09:00:00 6.6 8 Nordeste 18 Nordeste 0 -- -- 92
2020-03-13 08:00:00 6.4 6 Nordeste 13 Nordeste 0 -- -- 93
2020-03-13 07:00:00 6.5 5 Este 13 Nordeste 0 -- -- 92
2020-03-13 06:00:00 6.5 5 Nordeste 15 Norte 0 -- -- 93
2020-03-13 05:00:00 6.6 7 Nordeste 17 Nordeste 0 -- -- 92
2020-03-13 04:00:00 6.9 9 Nordeste 17 Nordeste 0 -- -- 93
2020-03-13 03:00:00 7.7 7 Nordeste 16 Nordeste 0 -- -- 93
2020-03-13 02:00:00 7.9 4 Sudoeste 8 Oeste 0 -- -- 96
2020-03-13 01:00:00 8.1 3 Sudoeste 7 Nordeste 0 -- -- 96
2020-03-13 00:00:00 8.1 3 Sudoeste 13 Noroeste 0 -- -- 96
2020-03-12 23:00:00 8.3 11 Noroeste 19 Noroeste 0 -- -- 96
2020-03-12 22:00:00 9.1 3 Norte 10 Nordeste 0 -- -- 93
2020-03-12 21:00:00 9.2 6 Nordeste 14 Norte 0 -- -- 91
2020-03-12 20:00:00 9.5 8 Nordeste 17 Nordeste 0 -- -- 89
2020-03-12 19:00:00 9.8 4 Noroeste 15 Nordeste 0 -- -- 91
2020-03-12 18:00:00 10.4 8 Norte 21 Nordeste 0 -- -- 90
2020-03-12 17:00:00 10.7 11 Nordeste 26 Este 0 -- -- 88
2020-03-12 16:00:00 10.7 12 Nordeste 21 Nordeste 0 -- -- 89
2020-03-12 15:00:00 11.4 13 Nordeste 23 Nordeste 0 -- -- 87
2020-03-12 14:00:00 11.8 12 Nordeste 18 Nordeste 0 -- -- 85
2020-03-12 13:00:00 12 8 Noroeste 14 Norte 0 -- -- 86
2020-03-12 12:00:00 11.3 4 Noroeste 9 Sudoeste 0 -- -- 91
2020-03-12 11:00:00 10.3 5 Oeste 11 Oeste 0 -- -- 97
2020-03-12 10:00:00 9.3 3 Sudoeste 6 Oeste 0 -- -- 99
2020-03-12 09:00:00 8.6 0 Calma 8 Sudoeste 0 -- -- 99
2020-03-12 08:00:00 8.4 5 Oeste 10 Sudoeste 0 -- -- 98
2020-03-12 07:00:00 8.4 5 Oeste 10 Oeste 0 -- -- 97
2020-03-12 06:00:00 9 2 Oeste 6 Oeste 0 -- -- 95
2020-03-12 05:00:00 9.1 3 Sur 6 Sudeste 0 -- -- 93
2020-03-12 04:00:00 9.4 4 Este 9 Sudeste 0 -- -- 89
2020-03-12 03:00:00 9.3 4 Sudeste 7 Sudeste 0 -- -- 88
2020-03-12 02:00:00 10.2 3 Sudeste 6 Sudeste 0 -- -- 87
2020-03-12 01:00:00 10.7 3 Sudeste 7 Sudeste 0 -- -- 83
2020-03-12 00:00:00 10.9 3 Este 6 Este 0 -- -- 82
2020-03-11 23:00:00 11.8 0 Calma 9 Sudeste 0 -- -- 74
2020-03-11 22:00:00 12.5 4 Sur 9 Sudoeste 0 -- -- 68
2020-03-11 21:00:00 12.2 6 Sudeste 16 Sudeste 0 -- -- 68
2020-03-11 20:00:00 12.6 11 Sudeste 14 Sudeste 0 -- -- 68
2020-03-11 19:00:00 16.8 8 Sudeste 10 Sudeste 0 -- -- 59
2020-03-11 18:00:00 21.8 0 Calma 4 Sur 0 -- -- 49
2020-03-11 17:00:00 22 3 Sur 9 Sur 0 -- -- 49
2020-03-11 16:00:00 21.7 3 Sudoeste 6 Sur 0 -- -- 51
2020-03-11 15:00:00 20 4 Noroeste 9 Oeste 0 -- -- 55
2020-03-11 14:00:00 18.4 3 Norte 7 Noroeste 0 -- -- 62
2020-03-11 13:00:00 17.2 3 Norte 8 Noroeste 0 -- -- 65
2020-03-11 12:00:00 15.2 3 Oeste 6 Sudoeste 0 -- -- 77
2020-03-11 11:00:00 13.1 4 Oeste 6 Noroeste 0 -- -- 80
2020-03-11 10:00:00 11.3 0 Calma 5 Oeste 0 -- -- 90
2020-03-11 09:00:00 7.6 3 Sudeste 8 Sudeste 0 -- -- 99
2020-03-11 08:00:00 3.6 6 Sudeste 10 Sudeste 0 -- -- 99
2020-03-11 07:00:00 3.6 6 Sudeste 9 Sudeste 0 -- -- 98
2020-03-11 06:00:00 4 6 Sudeste 10 Sudeste 0 -- -- 97
2020-03-11 05:00:00 4.5 9 Sudeste 12 Sudeste 0 -- -- 98
2020-03-11 04:00:00 4.9 9 Sudeste 12 Sudeste 0 -- -- 97
2020-03-11 03:00:00 5 8 Sudeste 12 Sudeste 0 -- -- 96
2020-03-11 02:00:00 5.1 8 Sudeste 12 Sudeste 0 -- -- 96
2020-03-11 01:00:00 5.4 8 Sudeste 12 Sudeste 0 -- -- 94
2020-03-11 00:00:00 6 9 Sudeste 12 Sudeste 0 -- -- 93
2020-03-10 23:00:00 6.7 8 Sudeste 10 Sudeste 0 -- -- 94
2020-03-10 22:00:00 7.4 6 Sudeste 9 Sudeste 0 -- -- 92
2020-03-10 21:00:00 8.9 6 Sudeste 9 Sudeste 0 -- -- 88
2020-03-10 20:00:00 11.4 3 Noroeste 18 Sudoeste 0 -- -- 84
2020-03-10 19:00:00 15.2 3 Sudoeste 10 Oeste 0 -- -- 73
2020-03-10 18:00:00 18.1 6 Oeste 10 Oeste 0 -- -- 61
2020-03-10 17:00:00 18.2 3 Sudoeste 10 Oeste 0 -- -- 54
2020-03-10 16:00:00 17.7 3 Sudoeste 11 Oeste 0 -- -- 51
2020-03-10 15:00:00 17.3 4 Oeste 12 Oeste 0 -- -- 59
2020-03-10 14:00:00 16 3 Noroeste 11 Norte 0 -- -- 57
2020-03-10 13:00:00 14 2 Norte 8 Norte 0 -- -- 60
2020-03-10 12:00:00 12.2 3 Norte 8 Norte 0 -- -- 64
2020-03-10 11:00:00 10.4 3 Noroeste 6 Noroeste 0 -- -- 85
2020-03-10 10:00:00 8.5 0 Calma 6 Sudeste 0 -- -- 83
2020-03-10 09:00:00 4.9 5 Sudeste 9 Sudeste 0 -- -- 98
2020-03-10 08:00:00 3 7 Sudeste 10 Sudeste 0 -- -- 98
2020-03-10 07:00:00 2.7 5 Sudeste 10 Sudeste 0 -- -- 98
2020-03-10 06:00:00 2.7 6 Sudeste 9 Sudeste 0 -- -- 98
2020-03-10 05:00:00 2.6 5 Sudeste 9 Sudeste 0 -- -- 98
2020-03-10 04:00:00 2.7 7 Sudeste 11 Sudeste 0 -- -- 98
2020-03-10 03:00:00 2.3 9 Sudeste 12 Sudeste 0 -- -- 98
2020-03-10 02:00:00 2.6 9 Sudeste 12 Sudeste 0 -- -- 97
2020-03-10 01:00:00 3 8 Sudeste 11 Sudeste 0 -- -- 97
2020-03-10 00:00:00 3.9 6 Sudeste 8 Sudeste 0 -- -- 96
2020-03-09 23:00:00 4.6 3 Sur 7 Sudoeste 0 -- -- 94
2020-03-09 22:00:00 5.4 4 Sur 21 Norte 0 -- -- 93
2020-03-09 21:00:00 6.3 12 Norte 19 Norte 0 -- -- 88
2020-03-09 20:00:00 6.2 10 Norte 23 Noroeste 0 -- -- 89
2020-03-09 19:00:00 6.9 13 Norte 21 Norte 0 -- -- 88
2020-03-09 18:00:00 7.3 11 Noroeste 32 Noroeste 0 -- -- 90
2020-03-09 17:00:00 7.2 22 Noroeste 35 Noroeste 0 -- -- 86
2020-03-09 16:00:00 7.3 19 Noroeste 36 Noroeste 0 -- -- 90
2020-03-09 15:00:00 7.2 22 Noroeste 37 Noroeste 0 -- -- 90
2020-03-09 14:00:00 7.2 25 Noroeste 36 Noroeste 0 -- -- 90
2020-03-09 13:00:00 7.1 21 Noroeste 35 Oeste 0 -- -- 91
2020-03-09 12:00:00 6.5 24 Noroeste 39 Noroeste 0.2 -- -- 93
2020-03-09 11:00:00 6.2 17 Noroeste 27 Noroeste 0.4 -- -- 96
2020-03-09 10:00:00 5.7 13 Oeste 22 Noroeste 0.6 -- -- 98
2020-03-09 09:00:00 5.4 12 Oeste 23 Noroeste 0.2 -- -- 97
2020-03-09 08:00:00 5.4 10 Oeste 20 Noroeste 0 -- -- 94
2020-03-09 07:00:00 5.3 10 Oeste 22 Oeste 0.4 -- -- 95
2020-03-09 06:00:00 5.4 10 Noroeste 23 Noroeste 0 -- -- 92
2020-03-09 05:00:00 5.5 12 Noroeste 29 Noroeste 0 -- -- 93
2020-03-09 04:00:00 5.9 19 Noroeste 34 Noroeste 0.2 -- -- 90
2020-03-09 03:00:00 6.2 17 Noroeste 26 Noroeste 0 -- -- 90
2020-03-09 02:00:00 6.7 16 Oeste 35 Noroeste 0 -- -- 89
2020-03-09 01:00:00 7.1 12 Oeste 18 Sudoeste 0 -- -- 92
2020-03-09 00:00:00 7.2 7 Oeste 20 Noroeste 0 -- -- 93
2020-03-08 23:00:00 7.4 4 Sudoeste 18 Oeste 0.2 -- -- 95
2020-03-08 22:00:00 7.7 4 Oeste 16 Noroeste 1.8 -- -- 95
2020-03-08 21:00:00 8.2 17 Noroeste 27 Noroeste 1 -- -- 91
2020-03-08 20:00:00 8.8 4 Oeste 24 Noroeste 0 -- -- 85
2020-03-08 19:00:00 10.9 12 Norte 22 Norte 0 -- -- 82
2020-03-08 18:00:00 12.6 7 Noroeste 15 Oeste 0 -- -- 72
2020-03-08 17:00:00 14.1 7 Oeste 13 Oeste 0 -- -- 62
2020-03-08 16:00:00 14.1 3 Norte 7 Este 0 -- -- 67
2020-03-08 15:00:00 12.5 4 Norte 8 Oeste 0 -- -- 69
2020-03-08 14:00:00 12.6 4 Oeste 9 Noroeste 0 -- -- 69
2020-03-08 13:00:00 11.5 5 Norte 14 Noroeste 0 -- -- 77
2020-03-08 12:00:00 9.6 0 Calma 8 Norte 0 -- -- 77
2020-03-08 11:00:00 7.7 6 Nordeste 9 Nordeste 0 -- -- 86
2020-03-08 10:00:00 6.8 4 Sudeste 9 Este 0 -- -- 94
2020-03-08 09:00:00 4.7 4 Sudeste 13 Sudeste 0 -- -- 98
2020-03-08 08:00:00 2.7 9 Sudeste 14 Sudeste 0 -- -- 98
2020-03-08 07:00:00 2.4 9 Sudeste 14 Sudeste 0 -- -- 99
2020-03-08 06:00:00 2 11 Sudeste 14 Sudeste 0 -- -- 99
2020-03-08 05:00:00 1.9 10 Sudeste 15 Sudeste 0 -- -- 99
2020-03-08 04:00:00 2.1 9 Sudeste 14 Sudeste 0 -- -- 99
2020-03-08 03:00:00 1.4 8 Sudeste 12 Sudeste 0 -- -- 99
2020-03-08 02:00:00 1.2 8 Sudeste 13 Sudeste 0 -- -- 99
2020-03-08 01:00:00 1.5 12 Sudeste 14 Sudeste 0 -- -- 98
2020-03-08 00:00:00 1.7 12 Sudeste 14 Sudeste 0 -- -- 98
2020-03-07 23:00:00 2 8 Sudeste 12 Sudeste 0 -- -- 97
2020-03-07 22:00:00 2.5 9 Sudeste 14 Sudeste 0 -- -- 96
2020-03-07 21:00:00 3.4 8 Sudeste 13 Sudeste 0 -- -- 94
2020-03-07 20:00:00 5 9 Sudeste 13 Sudeste 0 -- -- 93
2020-03-07 19:00:00 7.1 0 Calma 9 Norte 0 -- -- 93
2020-03-07 18:00:00 7.3 4 Oeste 14 Norte 0 -- -- 95
2020-03-07 17:00:00 7.2 7 Norte 16 Oeste 0.2 -- -- 96
2020-03-07 16:00:00 7.5 11 Noroeste 24 Noroeste 0 -- -- 95
2020-03-07 15:00:00 7.3 17 Noroeste 24 Noroeste 0.2 -- -- 96
2020-03-07 14:00:00 7.8 12 Noroeste 24 Noroeste 0.8 -- -- 96
2020-03-07 13:00:00 7.9 14 Noroeste 30 Noroeste 0.4 -- -- 96
2020-03-07 12:00:00 7.8 16 Noroeste 23 Noroeste 0.2 -- -- 98
2020-03-07 11:00:00 7.3 13 Noroeste 21 Noroeste 0.4 -- -- 99
2020-03-07 10:00:00 6.5 12 Noroeste 27 Noroeste 0.4 -- -- 99
2020-03-07 09:00:00 5.9 14 Norte 32 Norte 0 -- -- 96
2020-03-07 08:00:00 5.8 20 Noroeste 36 Noroeste 0.2 -- -- 92
2020-03-07 07:00:00 5.5 18 Noroeste 28 Noroeste 0 -- -- 98
2020-03-07 06:00:00 4.9 14 Noroeste 31 Oeste 1.8 -- -- 99
2020-03-07 05:00:00 4.2 10 Oeste 20 Oeste 1.6 -- -- 98
2020-03-07 04:00:00 3.9 12 Noroeste 25 Oeste 0.4 -- -- 97
2020-03-07 03:00:00 3.5 12 Oeste 27 Oeste 0.6 -- -- 98
2020-03-07 02:00:00 3.4 10 Oeste 27 Noroeste 1 -- -- 98
2020-03-07 01:00:00 3 8 Oeste 30 Noroeste 1.6 -- -- 96
2020-03-07 00:00:00 2.9 10 Oeste 25 Oeste 1.2 -- -- 98
2020-03-06 23:00:00 3 12 Oeste 26 Oeste 0 -- -- 96
2020-03-06 22:00:00 2.8 17 Oeste 37 Oeste 0.6 -- -- 95
2020-03-06 21:00:00 3 18 Oeste 40 Noroeste 0.2 -- -- 93
2020-03-06 20:00:00 3.3 29 Noroeste 52 Noroeste 0.4 -- -- 93
2020-03-06 19:00:00 3.3 18 Oeste 44 Noroeste 0.4 -- -- 92
2020-03-06 18:00:00 3.1 17 Noroeste 62 Noroeste 0.8 -- -- 95
2020-03-06 17:00:00 4 37 Noroeste 59 Noroeste 0.4 -- -- 87
2020-03-06 16:00:00 3.8 37 Noroeste 62 Noroeste 1.2 -- -- 89
2020-03-06 15:00:00 3.5 15 Oeste 42 Oeste 1.2 -- -- 96
2020-03-06 14:00:00 3.5 38 Noroeste 66 Oeste 0.8 -- -- 92
2020-03-06 13:00:00 1.9 6 Norte 38 Oeste 0.8 -- -- 97
2020-03-06 12:00:00 1.4 7 Norte 26 Oeste 1.6 -- -- 98
2020-03-06 11:00:00 0.9 18 Oeste 39 Sudoeste 2.4 -- -- 98
2020-03-06 10:00:00 1.6 20 Oeste 40 Oeste 0.8 -- -- 97
2020-03-06 09:00:00 1.6 14 Oeste 34 Oeste 1.4 -- -- 94
2020-03-06 08:00:00 3 18 Oeste 47 Oeste 0.2 -- -- 92
2020-03-06 07:00:00 3.6 5 Oeste 17 Noroeste 0.2 -- -- 92
2020-03-06 06:00:00 3.6 3 Este 10 Sur 0 -- -- 93
2020-03-06 05:00:00 3.6 5 Norte 11 Noroeste 0 -- -- 92
2020-03-06 04:00:00 3.4 3 Sudoeste 11 Sudoeste 0 -- -- 93
2020-03-06 03:00:00 2.3 4 Sudeste 11 Sudeste 0 -- -- 95
2020-03-06 02:00:00 1.7 6 Sudeste 12 Sudeste 0.2 -- -- 93
2020-03-06 01:00:00 2.7 6 Sudeste 10 Sudeste 0 -- -- 92
2020-03-06 00:00:00 4.8 4 Sur 12 Sur 0 -- -- 87
2020-03-05 23:00:00 5.3 4 Sur 10 Sur 0 -- -- 89
2020-03-05 22:00:00 5.3 6 Norte 16 Noroeste 0 -- -- 92
2020-03-05 21:00:00 5.5 5 Norte 25 Noroeste 0.2 -- -- 88
2020-03-05 20:00:00 5.8 7 Oeste 24 Oeste 0 -- -- 86
2020-03-05 19:00:00 6.3 18 Noroeste 46 Noroeste 0 -- -- 84
2020-03-05 18:00:00 7.8 24 Noroeste 46 Oeste 0 -- -- 80
2020-03-05 17:00:00 8.3 25 Noroeste 50 Noroeste 0 -- -- 78
2020-03-05 16:00:00 9.4 29 Noroeste 51 Noroeste 0 -- -- 76
2020-03-05 15:00:00 10.1 14 Oeste 31 Oeste 0.4 -- -- 82
2020-03-05 14:00:00 9.9 6 Oeste 15 Sur 0 -- -- 88
2020-03-05 13:00:00 7.8 9 Oeste 50 Noroeste 1.8 -- -- 92
2020-03-05 12:00:00 11.1 9 Noroeste 43 Sudoeste 0.6 -- -- 88
2020-03-05 11:00:00 12 18 Sudoeste 57 Sudoeste 0.4 -- -- 78
2020-03-05 10:00:00 12.6 20 Sudoeste 51 Sudoeste 0 -- -- 74
2020-03-05 09:00:00 12.6 13 Sudoeste 45 Sudoeste 0 -- -- 76
2020-03-05 08:00:00 12.8 24 Sudoeste 52 Sudoeste 0 -- -- 75
2020-03-05 07:00:00 12.8 24 Sudoeste 54 Sudoeste 0 -- -- 77
2020-03-05 06:00:00 13.1 16 Sur 42 Sudoeste 0 -- -- 76
2020-03-05 05:00:00 13.2 10 Sudoeste 37 Sudoeste 0 -- -- 76
2020-03-05 04:00:00 13 15 Sudoeste 41 Sudoeste 0 -- -- 76
2020-03-05 03:00:00 13 19 Sudoeste 35 Sur 0 -- -- 76
2020-03-05 02:00:00 12.5 14 Sudoeste 39 Sudoeste 0 -- -- 79
2020-03-05 01:00:00 12.4 7 Sudoeste 32 Sudoeste 0 -- -- 78
2020-03-05 00:00:00 12.7 12 Sudoeste 31 Oeste 0 -- -- 78
2020-03-04 23:00:00 13.1 18 Sudoeste 36 Sudoeste 0 -- -- 76
2020-03-04 22:00:00 13 10 Sudoeste 41 Sudoeste 0 -- -- 76
2020-03-04 21:00:00 13.7 13 Sudoeste 32 Sudoeste 0 -- -- 73
2020-03-04 20:00:00 13.6 6 Sudoeste 30 Sudoeste 0 -- -- 71
2020-03-04 19:00:00 14.2 8 Sudoeste 21 Sudoeste 0 -- -- 72
2020-03-04 18:00:00 14.7 12 Oeste 25 Oeste 0 -- -- 70
2020-03-04 17:00:00 15.2 8 Sudoeste 24 Oeste 0 -- -- 74
2020-03-04 16:00:00 14.8 13 Oeste 24 Oeste 0 -- -- 76
2020-03-04 15:00:00 15.1 12 Oeste 22 Oeste 0.2 -- -- 76
2020-03-04 14:00:00 14.8 10 Oeste 24 Oeste 0 -- -- 77
2020-03-04 13:00:00 14.4 14 Oeste 22 Oeste 0 -- -- 82
2020-03-04 12:00:00 13.8 3 Oeste 10 Oeste 0 -- -- 85
2020-03-04 11:00:00 11.9 2 Este 7 Norte 0 -- -- 95
2020-03-04 10:00:00 9.5 4 Norte 7 Norte 0 -- -- 100
2020-03-04 09:00:00 8.6 2 Norte 8 Sudeste 0 -- -- 100
2020-03-04 08:00:00 7.5 2 Nordeste 5 Este 0.2 -- -- 99
2020-03-04 07:00:00 7.6 0 Calma 5 Oeste 1.4 -- -- 99
2020-03-04 06:00:00 7.6 2 Este 8 Sudeste 1.6 -- -- 98
2020-03-04 05:00:00 7.5 3 Sudeste 8 Sur 0.4 -- -- 98
2020-03-04 04:00:00 7.1 3 Este 8 Este 0.2 -- -- 98
2020-03-04 03:00:00 6.7 4 Nordeste 10 Nordeste 0 -- -- 98
2020-03-04 02:00:00 6.8 4 Sudeste 7 Sur 0 -- -- 97
2020-03-04 01:00:00 6.7 3 Sudeste 7 Sur 0 -- -- 97
2020-03-04 00:00:00 7 2 Oeste 6 Sudoeste 0 -- -- 97
2020-03-03 23:00:00 7 2 Sudeste 8 Nordeste 0.2 -- -- 97
2020-03-03 22:00:00 7.2 4 Norte 7 Norte 0.4 -- -- 96
2020-03-03 21:00:00 7.5 4 Norte 18 Norte 0.2 -- -- 94
2020-03-03 20:00:00 8.1 11 Norte 30 Oeste 0 -- -- 90
2020-03-03 19:00:00 9 20 Noroeste 40 Noroeste 0 -- -- 88
2020-03-03 18:00:00 9.9 28 Noroeste 58 Noroeste 0 -- -- 83
2020-03-03 17:00:00 10.9 35 Noroeste 64 Oeste 0 -- -- 76
2020-03-03 16:00:00 12.1 40 Noroeste 71 Noroeste 0 -- -- 74
2020-03-03 15:00:00 14.8 40 Noroeste 67 Oeste 0 -- -- 67
2020-03-03 14:00:00 14.3 24 Oeste 48 Oeste 0 -- -- 72
2020-03-03 13:00:00 13.5 27 Oeste 46 Oeste 0 -- -- 75
2020-03-03 12:00:00 12.1 20 Oeste 50 Oeste 0 -- -- 80
2020-03-03 11:00:00 8.7 20 Sudoeste 42 Oeste 0 -- -- 87
2020-03-03 10:00:00 6.5 9 Sudoeste 41 Sudoeste 0 -- -- 91
2020-03-03 09:00:00 5 12 Sudoeste 38 Sudoeste 0.4 -- -- 91
2020-03-03 08:00:00 3.7 10 Sudoeste 25 Sur 1 -- -- 91
2020-03-03 07:00:00 4.2 8 Sudoeste 28 Sudoeste 0.8 -- -- 89
2020-03-03 06:00:00 4.5 10 Oeste 29 Oeste 0 -- -- 88
2020-03-03 05:00:00 4.2 11 Oeste 27 Oeste 0 -- -- 86
2020-03-03 04:00:00 3.8 9 Oeste 19 Oeste 0 -- -- 88
2020-03-03 03:00:00 3.1 5 Sudoeste 16 Oeste 0 -- -- 87
2020-03-03 02:00:00 3 4 Sudeste 8 Sudoeste 0 -- -- 89
2020-03-03 01:00:00 3.2 3 Sur 12 Sudeste 0 -- -- 83
2020-03-03 00:00:00 3 4 Este 11 Sur 0 -- -- 89
2020-03-02 23:00:00 2.8 3 Sudoeste 15 Oeste 0 -- -- 92
2020-03-02 22:00:00 3.1 11 Oeste 36 Oeste 0 -- -- 91
2020-03-02 21:00:00 3 10 Oeste 30 Oeste 0.2 -- -- 93
2020-03-02 20:00:00 3 13 Oeste 35 Oeste 0 -- -- 94
2020-03-02 19:00:00 3.2 17 Oeste 31 Oeste 0 -- -- 93
2020-03-02 18:00:00 3.4 13 Oeste 39 Oeste 0.2 -- -- 91
2020-03-02 17:00:00 3.6 22 Oeste 45 Noroeste 0.2 -- -- 91
2020-03-02 16:00:00 4.5 26 Noroeste 43 Oeste 0.2 -- -- 86
2020-03-02 15:00:00 6.4 29 Noroeste 51 Oeste 0 -- -- 77
2020-03-02 14:00:00 5.1 25 Oeste 52 Oeste 0 -- -- 82
2020-03-02 13:00:00 6.1 23 Oeste 42 Oeste 0 -- -- 75
2020-03-02 12:00:00 5.4 15 Oeste 48 Oeste 0.4 -- -- 86
2020-03-02 11:00:00 5.2 17 Oeste 41 Oeste 0 -- -- 84
2020-03-02 10:00:00 4.7 20 Oeste 33 Oeste 0.2 -- -- 91
2020-03-02 09:00:00 4.6 13 Noroeste 50 Oeste 0.2 -- -- 91
2020-03-02 08:00:00 5.7 28 Oeste 45 Oeste 0.6 -- -- 91
2020-03-02 07:00:00 6.4 17 Oeste 42 Oeste 0.4 -- -- 94
2020-03-02 06:00:00 6.5 15 Oeste 48 Oeste 3.8 -- -- 95
2020-03-02 05:00:00 8.3 46 Oeste 89 Oeste 3.6 -- -- 87
2020-03-02 04:00:00 12.3 28 Sudoeste 65 Sudoeste 0.2 -- -- 76
2020-03-02 03:00:00 10.7 26 Sur 51 Sudoeste 1.2 -- -- 83
2020-03-02 02:00:00 9.1 27 Sudeste 57 Sudeste 2.2 -- -- 90
2020-03-02 01:00:00 9.2 23 Sur 44 Sudeste 2.8 -- -- 85
2020-03-02 00:00:00 9.4 14 Sur 35 Sudeste 1 -- -- 82
2020-03-01 23:00:00 9.5 13 Sur 34 Sudoeste 1 -- -- 78
2020-03-01 22:00:00 12.4 25 Sudoeste 47 Sudoeste 0 -- -- 57
2020-03-01 21:00:00 12.8 13 Sudoeste 35 Sudoeste 0 -- -- 52
2020-03-01 20:00:00 13.2 18 Sudoeste 43 Sur 0 -- -- 54
2020-03-01 19:00:00 13.6 13 Sudoeste 45 Sudoeste 0 -- -- 51
2020-03-01 18:00:00 13.7 16 Sudoeste 42 Sudoeste 0 -- -- 52
2020-03-01 17:00:00 14.1 22 Oeste 38 Sudoeste 0 -- -- 50
2020-03-01 16:00:00 15.1 18 Sudoeste 51 Sudoeste 0 -- -- 48
2020-03-01 15:00:00 15.6 17 Sudoeste 50 Oeste 0 -- -- 53
2020-03-01 14:00:00 14.8 22 Oeste 49 Sudoeste 0 -- -- 51
2020-03-01 13:00:00 14.3 20 Sudoeste 50 Oeste 0 -- -- 58
2020-03-01 12:00:00 13.7 21 Oeste 52 Sudoeste 0 -- -- 61
2020-03-01 11:00:00 11.4 22 Oeste 49 Oeste 0 -- -- 68
2020-03-01 10:00:00 10 22 Sudoeste 47 Oeste 0 -- -- 74
2020-03-01 09:00:00 9.4 17 Sudoeste 50 Sur 0 -- -- 74
2020-03-01 08:00:00 8.4 18 Oeste 41 Sudoeste 0 -- -- 74
2020-03-01 07:00:00 8.4 17 Sudeste 35 Sudeste 0 -- -- 73
2020-03-01 06:00:00 8.2 13 Sudoeste 29 Oeste 0 -- -- 73
2020-03-01 05:00:00 8.6 12 Sudoeste 48 Sudoeste 0 -- -- 72
2020-03-01 04:00:00 8.4 9 Oeste 21 Sudoeste 0 -- -- 74
2020-03-01 03:00:00 7.9 13 Sudoeste 20 Sur 0 -- -- 75
2020-03-01 02:00:00 8 5 Sudoeste 26 Sur 0 -- -- 74
2020-03-01 01:00:00 8.1 6 Sudoeste 24 Sudoeste 0 -- -- 75
2020-03-01 00:00:00 6.8 3 Nordeste 10 Sur 0 -- -- 89
2020-02-29 23:00:00 7.1 4 Sur 7 Sudoeste 0 -- -- 88
2020-02-29 22:00:00 7.2 0 Calma 6 Sudeste 0 -- -- 88
2020-02-29 21:00:00 7.3 2 Norte 10 Sur 0 -- -- 87
2020-02-29 20:00:00 7.8 6 Sur 12 Sur 0 -- -- 85
2020-02-29 19:00:00 8.5 6 Sur 16 Sudoeste 0 -- -- 84
2020-02-29 18:00:00 9.2 7 Noroeste 23 Norte 0 -- -- 81
2020-02-29 17:00:00 11 6 Noroeste 24 Noroeste 0 -- -- 77
2020-02-29 16:00:00 12.6 9 Norte 39 Oeste 0 -- -- 73
2020-02-29 15:00:00 14.7 19 Oeste 38 Oeste 0 -- -- 66
2020-02-29 14:00:00 13.3 10 Oeste 25 Oeste 0 -- -- 75
2020-02-29 13:00:00 13.2 11 Sudoeste 45 Sudoeste 0 -- -- 71
2020-02-29 12:00:00 12 16 Sudoeste 54 Sudoeste 0 -- -- 71
2020-02-29 11:00:00 11.9 22 Oeste 46 Sudoeste 0 -- -- 71
2020-02-29 10:00:00 11.1 10 Oeste 42 Sudoeste 0 -- -- 70
2020-02-29 09:00:00 10.9 12 Sudoeste 33 Sudoeste 0 -- -- 64
2020-02-29 08:00:00 10.2 6 Sudeste 48 Sur 0 -- -- 58
2020-02-29 07:00:00 9.8 20 Sur 47 Sudeste 0 -- -- 69
2020-02-29 06:00:00 10.7 24 Sudeste 44 Sudeste 0 -- -- 60
2020-02-29 05:00:00 9.4 26 Sudeste 41 Sudeste 0 -- -- 73
2020-02-29 04:00:00 11.2 27 Sur 44 Sur 0 -- -- 59
2020-02-29 03:00:00 10.5 25 Sudeste 41 Sudeste 0 -- -- 64
2020-02-29 02:00:00 10.3 26 Sudeste 45 Sudeste 0 -- -- 65
2020-02-29 01:00:00 11.1 28 Sudeste 50 Sudeste 0 -- -- 56
2020-02-29 00:00:00 12.1 31 Sudeste 52 Sudeste 0 -- -- 47